createdAt,value
2017-02-01T00:00:29.799Z,2.63
2017-02-01T00:01:34.978Z,2.66
2017-02-01T00:02:41.151Z,2.67
2017-02-01T00:03:46.352Z,2.71
2017-02-01T00:04:52.525Z,2.63
2017-02-01T00:05:57.728Z,2.69
2017-02-01T00:07:03.958Z,2.69
2017-02-01T00:08:09.161Z,2.71
2017-02-01T00:09:15.330Z,2.63
2017-02-01T00:10:19.569Z,2.69
2017-02-01T00:11:25.736Z,2.61
2017-02-01T00:12:31.991Z,2.69
2017-02-01T00:13:38.187Z,2.63
2017-02-01T00:14:43.420Z,2.61
2017-02-01T00:15:48.611Z,2.52
2017-02-01T00:16:54.744Z,2.58
2017-02-01T00:18:00.913Z,2.55
2017-02-01T00:19:06.128Z,2.61
2017-02-01T00:20:11.310Z,2.53
2017-02-01T00:21:16.533Z,2.64
2017-02-01T00:22:21.733Z,2.59
2017-02-01T00:23:25.978Z,2.61
2017-02-01T00:24:32.136Z,2.58
2017-02-01T00:25:36.378Z,2.59
2017-02-01T00:26:41.581Z,2.55
2017-02-01T00:27:46.738Z,2.53
2017-02-01T00:28:51.930Z,2.53
2017-02-01T00:29:58.143Z,2.53
2017-02-01T00:31:03.304Z,2.55
2017-02-01T00:32:08.474Z,2.56
2017-02-01T00:33:12.707Z,2.58
2017-02-01T00:34:17.896Z,2.56
2017-02-01T00:35:24.066Z,2.53
2017-02-01T00:36:29.277Z,2.59
2017-02-01T00:37:33.480Z,2.53
2017-02-01T00:38:38.654Z,2.55
2017-02-01T00:39:44.823Z,2.56
2017-02-01T00:40:50.018Z,2.53
2017-02-01T00:41:55.223Z,2.52
2017-02-01T00:43:00.420Z,2.52
2017-02-01T00:44:05.652Z,2.55
2017-02-01T00:45:11.836Z,2.53
2017-02-01T00:47:24.179Z,2.56
2017-02-01T00:48:30.344Z,2.56
2017-02-01T00:49:36.509Z,2.56
2017-02-01T00:50:42.676Z,2.58
2017-02-01T00:51:48.843Z,2.52
2017-02-01T00:52:53.066Z,2.52
2017-02-01T00:53:58.243Z,2.55
2017-02-01T00:55:03.438Z,2.56
2017-02-01T00:56:07.777Z,2.49
2017-02-01T00:57:12.947Z,2.53
2017-02-01T00:58:18.157Z,2.53
2017-02-01T00:59:23.316Z,2.55
2017-02-01T01:00:27.539Z,2.53
2017-02-01T01:01:32.735Z,2.48
2017-02-01T01:02:36.961Z,2.51
2017-02-01T01:03:42.150Z,2.51
2017-02-01T01:04:48.363Z,2.48
2017-02-01T01:05:54.490Z,2.49
2017-02-01T01:06:59.689Z,2.51
2017-02-01T01:08:04.885Z,2.51
2017-02-01T01:09:10.088Z,2.51
2017-02-01T01:10:15.282Z,2.41
2017-02-01T01:11:21.502Z,2.41
2017-02-01T01:12:25.734Z,2.56
2017-02-01T01:13:31.896Z,2.44
2017-02-01T01:14:37.099Z,2.55
2017-02-01T01:15:41.356Z,2.34
2017-02-01T01:16:46.500Z,2.4
2017-02-01T01:17:51.762Z,2.41
2017-02-01T01:18:57.924Z,2.48
2017-02-01T01:20:02.179Z,2.38
2017-02-01T01:21:06.403Z,2.53
2017-02-01T01:22:12.568Z,2.4
2017-02-01T01:23:18.727Z,2.48
2017-02-01T01:24:24.887Z,2.56
2017-02-01T01:25:31.052Z,2.44
2017-02-01T01:26:36.263Z,2.41
2017-02-01T01:27:42.428Z,2.48
2017-02-01T01:28:47.636Z,2.48
2017-02-01T01:29:53.808Z,2.53
2017-02-01T01:31:00.094Z,2.45
2017-02-01T01:32:04.294Z,2.55
2017-02-01T01:33:10.468Z,2.52
2017-02-01T01:34:16.647Z,2.52
2017-02-01T01:35:22.808Z,2.46
2017-02-01T01:36:28.006Z,2.51
2017-02-01T01:37:32.222Z,2.58
2017-02-01T01:38:37.420Z,2.51
2017-02-01T01:39:43.590Z,2.35
2017-02-01T01:40:49.752Z,2.49
2017-02-01T01:41:54.944Z,2.46
2017-02-01T01:43:01.105Z,2.52
2017-02-01T01:44:05.334Z,2.4
2017-02-01T01:45:11.503Z,2.45
2017-02-01T01:46:14.740Z,2.45
2017-02-01T01:47:20.898Z,2.44
2017-02-01T01:48:26.107Z,2.4
2017-02-01T01:49:31.320Z,2.37
2017-02-01T01:50:36.516Z,2.48
2017-02-01T01:51:42.677Z,2.44
2017-02-01T01:52:48.834Z,2.34
2017-02-01T01:53:55.018Z,2.37
2017-02-01T01:55:01.192Z,2.3
2017-02-01T01:56:07.381Z,2.3
2017-02-01T01:57:11.661Z,2.38
2017-02-01T01:58:15.915Z,2.4
2017-02-01T01:59:22.077Z,2.44
2017-02-01T02:00:25.365Z,2.38
2017-02-01T02:01:31.637Z,2.41
2017-02-01T02:02:36.840Z,2.44
2017-02-01T02:03:42.094Z,2.4
2017-02-01T02:04:46.323Z,2.4
2017-02-01T02:05:52.487Z,2.4
2017-02-01T02:06:58.658Z,2.44
2017-02-01T02:08:01.896Z,2.44
2017-02-01T02:09:08.068Z,2.44
2017-02-01T02:10:14.263Z,2.45
2017-02-01T02:11:17.511Z,2.38
2017-02-01T02:12:23.679Z,2.48
2017-02-01T02:13:28.875Z,2.4
2017-02-01T02:14:33.112Z,2.41
2017-02-01T02:15:37.318Z,2.41
2017-02-01T02:16:43.503Z,2.45
2017-02-01T02:17:48.801Z,2.44
2017-02-01T02:18:54.971Z,2.49
2017-02-01T02:20:01.135Z,2.46
2017-02-01T02:21:06.330Z,2.49
2017-02-01T02:22:09.597Z,2.49
2017-02-01T02:23:15.768Z,2.51
2017-02-01T02:24:21.926Z,2.53
2017-02-01T02:25:27.098Z,2.55
2017-02-01T02:26:33.267Z,2.49
2017-02-01T02:27:39.437Z,2.41
2017-02-01T02:28:44.607Z,2.52
2017-02-01T02:29:49.805Z,2.49
2017-02-01T02:30:54.028Z,2.51
2017-02-01T02:31:59.223Z,2.51
2017-02-01T02:33:04.428Z,2.52
2017-02-01T02:34:07.660Z,2.4
2017-02-01T02:35:13.869Z,2.51
2017-02-01T02:36:19.032Z,2.51
2017-02-01T02:37:24.224Z,2.53
2017-02-01T02:38:30.397Z,2.51
2017-02-01T02:39:35.592Z,2.49
2017-02-01T02:40:40.794Z,2.48
2017-02-01T02:41:45.029Z,2.58
2017-02-01T02:42:51.265Z,2.53
2017-02-01T02:43:56.464Z,2.56
2017-02-01T02:45:02.728Z,2.51
2017-02-01T02:46:07.971Z,2.51
2017-02-01T02:47:12.184Z,2.53
2017-02-01T02:48:17.376Z,2.44
2017-02-01T02:49:22.692Z,2.51
2017-02-01T02:50:28.870Z,2.45
2017-02-01T02:51:34.085Z,2.52
2017-02-01T02:52:39.278Z,2.53
2017-02-01T02:53:45.439Z,2.48
2017-02-01T02:54:50.612Z,2.55
2017-02-01T02:55:56.796Z,2.48
2017-02-01T02:57:01.995Z,2.53
2017-02-01T02:58:06.237Z,2.53
2017-02-01T02:59:11.438Z,2.55
2017-02-01T03:00:16.611Z,2.44
2017-02-01T03:01:22.778Z,2.46
2017-02-01T03:02:28.022Z,2.49
2017-02-01T03:03:33.192Z,2.53
2017-02-01T03:04:39.357Z,2.55
2017-02-01T03:05:45.520Z,2.49
2017-02-01T03:06:50.763Z,2.52
2017-02-01T03:07:56.936Z,2.52
2017-02-01T03:09:03.095Z,2.63
2017-02-01T03:10:09.351Z,2.53
2017-02-01T03:11:14.505Z,2.55
2017-02-01T03:12:20.673Z,2.59
2017-02-01T03:13:26.839Z,2.61
2017-02-01T03:14:30.094Z,2.59
2017-02-01T03:15:35.304Z,2.59
2017-02-01T03:16:41.478Z,2.63
2017-02-01T03:17:46.783Z,2.64
2017-02-01T03:18:51.937Z,2.64
2017-02-01T03:19:57.153Z,2.67
2017-02-01T03:21:03.312Z,2.64
2017-02-01T03:22:08.571Z,2.64
2017-02-01T03:23:13.767Z,2.64
2017-02-01T03:24:18.987Z,2.59
2017-02-01T03:25:24.200Z,2.59
2017-02-01T03:26:30.380Z,2.66
2017-02-01T03:27:35.596Z,2.59
2017-02-01T03:28:41.792Z,2.69
2017-02-01T03:29:47.961Z,2.71
2017-02-01T03:30:54.130Z,2.67
2017-02-01T03:32:00.315Z,2.63
2017-02-01T03:33:05.489Z,2.58
2017-02-01T03:34:09.713Z,2.61
2017-02-01T03:35:13.958Z,2.61
2017-02-01T03:36:19.156Z,2.64
2017-02-01T03:37:25.319Z,2.61
2017-02-01T03:38:31.485Z,2.73
2017-02-01T03:39:36.695Z,2.67
2017-02-01T03:40:41.913Z,2.7
2017-02-01T03:41:47.110Z,2.71
2017-02-01T03:42:52.309Z,2.71
2017-02-01T03:43:57.507Z,2.64
2017-02-01T03:45:03.665Z,2.64
2017-02-01T03:46:08.864Z,2.58
2017-02-01T03:47:14.063Z,2.64
2017-02-01T03:48:20.224Z,2.63
2017-02-01T03:49:25.430Z,2.66
2017-02-01T03:50:31.594Z,2.66
2017-02-01T03:51:37.803Z,2.71
2017-02-01T03:52:43.969Z,2.76
2017-02-01T03:53:49.169Z,2.63
2017-02-01T03:54:54.342Z,2.69
2017-02-01T03:55:58.579Z,2.74
2017-02-01T03:57:02.796Z,2.74
2017-02-01T03:58:08.955Z,2.74
2017-02-01T03:59:15.128Z,2.67
2017-02-01T04:00:21.287Z,2.59
2017-02-01T04:01:27.461Z,2.67
2017-02-01T04:02:32.660Z,2.64
2017-02-01T04:03:38.818Z,2.67
2017-02-01T04:04:44.023Z,2.74
2017-02-01T04:05:50.241Z,2.66
2017-02-01T04:06:56.417Z,2.71
2017-02-01T04:08:02.581Z,2.73
2017-02-01T04:09:07.779Z,2.74
2017-02-01T04:10:13.976Z,2.74
2017-02-01T04:11:19.179Z,2.71
2017-02-01T04:12:25.338Z,2.73
2017-02-01T04:13:31.667Z,2.7
2017-02-01T04:14:36.815Z,2.64
2017-02-01T04:15:41.053Z,2.69
2017-02-01T04:16:47.221Z,2.73
2017-02-01T04:17:52.420Z,2.77
2017-02-01T04:18:58.583Z,2.73
2017-02-01T04:20:04.760Z,2.69
2017-02-01T04:21:09.956Z,2.7
2017-02-01T04:22:15.125Z,2.67
2017-02-01T04:23:21.289Z,2.66
2017-02-01T04:24:27.452Z,2.69
2017-02-01T04:25:33.664Z,2.73
2017-02-01T04:26:38.869Z,2.67
2017-02-01T04:27:45.055Z,2.76
2017-02-01T04:28:51.243Z,2.71
2017-02-01T04:29:55.470Z,2.74
2017-02-01T04:31:01.693Z,2.71
2017-02-01T04:32:04.930Z,2.7
2017-02-01T04:33:09.130Z,2.66
2017-02-01T04:34:15.289Z,2.71
2017-02-01T04:35:20.486Z,2.81
2017-02-01T04:36:26.641Z,2.73
2017-02-01T04:37:30.951Z,2.77
2017-02-01T04:38:37.110Z,2.77
2017-02-01T04:39:42.355Z,2.85
2017-02-01T04:40:45.595Z,2.84
2017-02-01T04:41:50.758Z,2.89
2017-02-01T04:42:55.969Z,2.76
2017-02-01T04:44:01.172Z,2.79
2017-02-01T04:45:06.374Z,2.81
2017-02-01T04:46:12.545Z,2.82
2017-02-01T04:47:17.696Z,2.76
2017-02-01T04:48:22.888Z,2.7
2017-02-01T04:49:28.122Z,2.79
2017-02-01T04:50:33.322Z,2.73
2017-02-01T04:51:39.417Z,2.7
2017-02-01T04:52:44.614Z,2.71
2017-02-01T04:53:49.813Z,2.81
2017-02-01T04:54:55.974Z,2.74
2017-02-01T04:56:01.210Z,2.66
2017-02-01T04:57:06.397Z,2.71
2017-02-01T04:58:10.632Z,2.69
2017-02-01T04:59:15.821Z,2.69
2017-02-01T05:00:21.984Z,2.7
2017-02-01T05:01:28.152Z,2.7
2017-02-01T05:02:33.324Z,2.67
2017-02-01T05:03:38.553Z,2.67
2017-02-01T05:04:42.785Z,2.73
2017-02-01T05:05:47.960Z,2.73
2017-02-01T05:06:53.248Z,2.71
2017-02-01T05:07:58.412Z,2.73
2017-02-01T05:09:01.706Z,2.69
2017-02-01T05:10:04.941Z,2.74
2017-02-01T05:11:09.178Z,2.71
2017-02-01T05:12:15.344Z,2.77
2017-02-01T05:13:19.567Z,2.73
2017-02-01T05:14:25.736Z,2.7
2017-02-01T05:15:31.934Z,2.76
2017-02-01T05:16:38.091Z,2.79
2017-02-01T05:17:43.282Z,2.74
2017-02-01T05:18:49.457Z,2.7
2017-02-01T05:19:55.621Z,2.71
2017-02-01T05:21:00.828Z,2.66
2017-02-01T05:22:05.036Z,2.67
2017-02-01T05:23:11.205Z,2.81
2017-02-01T05:24:17.380Z,2.7
2017-02-01T05:25:21.566Z,2.74
2017-02-01T05:26:26.852Z,2.79
2017-02-01T05:27:32.042Z,2.74
2017-02-01T05:28:37.244Z,2.69
2017-02-01T05:29:42.443Z,2.73
2017-02-01T05:30:48.599Z,2.74
2017-02-01T05:31:53.805Z,2.71
2017-02-01T05:32:59.018Z,2.76
2017-02-01T05:34:05.175Z,2.74
2017-02-01T05:35:11.420Z,2.76
2017-02-01T05:36:17.578Z,2.66
2017-02-01T05:37:20.817Z,2.63
2017-02-01T05:38:25.012Z,2.69
2017-02-01T05:39:31.184Z,2.7
2017-02-01T05:40:36.374Z,2.77
2017-02-01T05:41:41.571Z,2.66
2017-02-01T05:42:46.774Z,2.7
2017-02-01T05:43:52.936Z,2.71
2017-02-01T05:44:59.157Z,2.67
2017-02-01T05:46:05.326Z,2.73
2017-02-01T05:47:10.527Z,2.71
2017-02-01T05:48:16.689Z,2.76
2017-02-01T05:49:22.895Z,2.71
2017-02-01T05:50:28.066Z,2.74
2017-02-01T05:51:34.225Z,2.71
2017-02-01T05:52:38.450Z,2.7
2017-02-01T05:53:44.612Z,2.66
2017-02-01T05:54:50.780Z,2.67
2017-02-01T05:55:56.946Z,2.74
2017-02-01T05:57:02.127Z,2.71
2017-02-01T05:58:08.289Z,2.71
2017-02-01T05:59:13.500Z,2.71
2017-02-01T06:00:19.662Z,2.73
2017-02-01T06:01:25.866Z,2.69
2017-02-01T06:02:32.015Z,2.79
2017-02-01T06:03:37.230Z,2.79
2017-02-01T06:04:41.459Z,2.73
2017-02-01T06:05:46.653Z,2.77
2017-02-01T06:06:51.819Z,2.77
2017-02-01T06:07:56.033Z,2.77
2017-02-01T06:09:01.230Z,2.77
2017-02-01T06:10:06.448Z,2.79
2017-02-01T06:11:10.706Z,2.76
2017-02-01T06:12:16.869Z,2.91
2017-02-01T06:13:22.071Z,2.88
2017-02-01T06:14:28.259Z,2.85
2017-02-01T06:15:34.432Z,2.85
2017-02-01T06:16:38.663Z,2.88
2017-02-01T06:17:44.841Z,2.82
2017-02-01T06:18:49.041Z,2.88
2017-02-01T06:19:55.200Z,2.88
2017-02-01T06:21:00.467Z,2.84
2017-02-01T06:22:06.633Z,2.91
2017-02-01T06:23:11.835Z,2.88
2017-02-01T06:24:17.995Z,2.87
2017-02-01T06:25:24.212Z,2.82
2017-02-01T06:26:28.453Z,2.92
2017-02-01T06:27:34.628Z,2.91
2017-02-01T06:28:40.790Z,2.91
2017-02-01T06:29:45.987Z,2.85
2017-02-01T06:30:51.189Z,2.95
2017-02-01T06:31:57.369Z,2.87
2017-02-01T06:33:03.536Z,2.91
2017-02-01T06:34:09.777Z,2.88
2017-02-01T06:35:13.051Z,2.91
2017-02-01T06:36:17.290Z,2.91
2017-02-01T06:37:22.572Z,2.91
2017-02-01T06:38:28.871Z,2.94
2017-02-01T06:39:33.103Z,2.87
2017-02-01T06:40:38.310Z,2.92
2017-02-01T06:41:43.504Z,2.88
2017-02-01T06:42:49.719Z,2.88
2017-02-01T06:43:54.874Z,2.92
2017-02-01T06:45:00.081Z,2.85
2017-02-01T06:46:05.265Z,2.87
2017-02-01T06:47:10.466Z,2.87
2017-02-01T06:48:16.643Z,2.82
2017-02-01T06:49:20.848Z,2.94
2017-02-01T06:50:27.018Z,2.89
2017-02-01T06:51:33.243Z,2.82
2017-02-01T06:52:38.439Z,2.98
2017-02-01T06:53:44.609Z,2.85
2017-02-01T06:54:48.909Z,2.89
2017-02-01T06:55:54.266Z,2.89
2017-02-01T06:56:59.464Z,2.91
2017-02-01T06:58:04.670Z,2.91
2017-02-01T06:59:08.883Z,2.92
2017-02-01T07:00:15.037Z,2.97
2017-02-01T07:01:21.203Z,2.88
2017-02-01T07:02:26.421Z,2.88
2017-02-01T07:03:32.624Z,2.92
2017-02-01T07:04:37.780Z,2.91
2017-02-01T07:05:43.942Z,2.95
2017-02-01T07:06:49.143Z,2.84
2017-02-01T07:07:55.312Z,3
2017-02-01T07:09:01.479Z,2.89
2017-02-01T07:10:07.650Z,2.88
2017-02-01T07:11:13.842Z,2.87
2017-02-01T07:12:19.003Z,2.92
2017-02-01T07:13:25.173Z,2.87
2017-02-01T07:14:28.442Z,2.92
2017-02-01T07:15:34.610Z,2.97
2017-02-01T07:16:40.775Z,2.76
2017-02-01T07:17:45.929Z,2.88
2017-02-01T07:18:52.111Z,2.88
2017-02-01T07:19:58.271Z,2.91
2017-02-01T07:21:04.464Z,2.91
2017-02-01T07:22:09.788Z,2.87
2017-02-01T07:23:14.895Z,2.94
2017-02-01T07:24:20.071Z,2.91
2017-02-01T07:25:25.293Z,2.89
2017-02-01T07:26:31.545Z,2.97
2017-02-01T07:27:35.739Z,2.92
2017-02-01T07:28:41.034Z,2.91
2017-02-01T07:29:47.197Z,2.88
2017-02-01T07:30:52.411Z,2.92
2017-02-01T07:31:58.673Z,2.91
2017-02-01T07:33:03.871Z,2.87
2017-02-01T07:34:10.038Z,2.89
2017-02-01T07:35:13.276Z,2.95
2017-02-01T07:36:19.448Z,2.92
2017-02-01T07:37:24.652Z,2.95
2017-02-01T07:38:30.822Z,2.98
2017-02-01T07:39:36.024Z,2.94
2017-02-01T07:40:41.223Z,2.97
2017-02-01T07:41:46.569Z,2.97
2017-02-01T07:42:50.787Z,2.92
2017-02-01T07:43:54.991Z,2.95
2017-02-01T07:44:58.217Z,2.97
2017-02-01T07:46:02.451Z,2.98
2017-02-01T07:47:07.660Z,2.97
2017-02-01T07:48:12.897Z,2.98
2017-02-01T07:49:18.077Z,2.97
2017-02-01T07:50:24.237Z,3.1
2017-02-01T07:51:28.469Z,3.06
2017-02-01T07:52:34.624Z,3.06
2017-02-01T07:53:39.904Z,3.07
2017-02-01T07:54:45.135Z,3.12
2017-02-01T07:55:50.319Z,3.07
2017-02-01T07:56:54.553Z,3.09
2017-02-01T07:58:00.708Z,3.12
2017-02-01T07:59:06.874Z,3.12
2017-02-01T08:00:13.029Z,3.03
2017-02-01T08:01:19.191Z,3.09
2017-02-01T08:02:25.361Z,3.09
2017-02-01T08:03:30.558Z,3.05
2017-02-01T08:04:36.743Z,3.05
2017-02-01T08:05:42.908Z,3.06
2017-02-01T08:06:49.075Z,3.09
2017-02-01T08:07:55.238Z,3.07
2017-02-01T08:09:01.403Z,3.13
2017-02-01T08:10:06.683Z,3.15
2017-02-01T08:11:10.892Z,3.16
2017-02-01T08:12:17.057Z,3.09
2017-02-01T08:13:22.258Z,3.07
2017-02-01T08:14:28.491Z,3.12
2017-02-01T08:15:34.622Z,3.05
2017-02-01T08:16:40.796Z,3.1
2017-02-01T08:17:45.043Z,3.07
2017-02-01T08:18:49.254Z,3.16
2017-02-01T08:19:54.466Z,3.16
2017-02-01T08:20:59.681Z,3.23
2017-02-01T08:22:03.881Z,3.2
2017-02-01T08:23:09.076Z,3.13
2017-02-01T08:24:15.278Z,3.09
2017-02-01T08:25:19.480Z,3.1
2017-02-01T08:26:23.690Z,3.13
2017-02-01T08:27:29.869Z,3.2
2017-02-01T08:28:35.070Z,3.2
2017-02-01T08:29:41.241Z,3.25
2017-02-01T08:30:47.408Z,3.18
2017-02-01T08:31:53.631Z,3.24
2017-02-01T08:32:58.834Z,3.16
2017-02-01T08:34:05.019Z,3.23
2017-02-01T08:35:09.233Z,3.16
2017-02-01T08:36:15.454Z,3.16
2017-02-01T08:37:20.621Z,3.18
2017-02-01T08:38:25.839Z,3.15
2017-02-01T08:39:30.040Z,3.16
2017-02-01T08:40:34.302Z,3.15
2017-02-01T08:41:39.463Z,3.18
2017-02-01T08:42:44.663Z,3.16
2017-02-01T08:43:49.862Z,3.24
2017-02-01T08:44:55.156Z,3.25
2017-02-01T08:46:01.385Z,3.24
2017-02-01T08:47:07.539Z,3.15
2017-02-01T08:49:17.971Z,3.18
2017-02-01T08:50:23.159Z,3.23
2017-02-01T08:51:28.364Z,3.18
2017-02-01T08:52:32.558Z,3.16
2017-02-01T08:53:36.860Z,3.07
2017-02-01T08:54:42.074Z,3.12
2017-02-01T08:55:46.264Z,3.15
2017-02-01T08:56:51.456Z,3.2
2017-02-01T08:57:57.624Z,3.13
2017-02-01T08:59:03.795Z,3.16
2017-02-01T09:00:08.969Z,3.18
2017-02-01T09:01:14.132Z,3.23
2017-02-01T09:02:19.331Z,3.21
2017-02-01T09:03:24.531Z,3.18
2017-02-01T09:04:30.697Z,3.2
2017-02-01T09:05:35.896Z,3.23
2017-02-01T09:06:42.068Z,3.23
2017-02-01T09:07:47.272Z,3.25
2017-02-01T09:08:53.473Z,3.27
2017-02-01T09:09:57.832Z,3.3
2017-02-01T09:11:03.997Z,3.28
2017-02-01T09:12:09.204Z,3.33
2017-02-01T09:13:13.428Z,3.3
2017-02-01T09:14:17.647Z,3.28
2017-02-01T09:15:22.848Z,3.31
2017-02-01T09:16:29.020Z,3.36
2017-02-01T09:17:35.189Z,3.46
2017-02-01T09:18:41.429Z,3.4
2017-02-01T09:19:47.604Z,3.53
2017-02-01T09:20:51.869Z,3.46
2017-02-01T09:21:58.021Z,3.47
2017-02-01T09:23:03.233Z,3.43
2017-02-01T09:24:09.396Z,3.5
2017-02-01T09:25:15.567Z,3.5
2017-02-01T09:26:20.749Z,3.61
2017-02-01T09:27:24.979Z,3.61
2017-02-01T09:28:31.155Z,3.62
2017-02-01T09:29:36.509Z,3.64
2017-02-01T09:30:42.688Z,3.6
2017-02-01T09:31:48.886Z,3.5
2017-02-01T09:32:54.045Z,3.61
2017-02-01T09:33:59.251Z,3.54
2017-02-01T09:35:05.431Z,3.49
2017-02-01T09:36:07.739Z,3.57
2017-02-01T09:37:12.013Z,3.57
2017-02-01T09:38:18.171Z,3.54
2017-02-01T09:39:22.377Z,3.58
2017-02-01T09:40:27.582Z,3.5
2017-02-01T09:41:33.787Z,3.52
2017-02-01T09:42:39.954Z,3.58
2017-02-01T09:43:46.086Z,3.61
2017-02-01T09:44:51.285Z,3.54
2017-02-01T09:45:57.446Z,3.47
2017-02-01T09:47:02.670Z,3.49
2017-02-01T09:48:07.834Z,3.58
2017-02-01T09:49:14.004Z,3.47
2017-02-01T09:50:20.173Z,3.57
2017-02-01T09:51:25.369Z,3.58
2017-02-01T09:52:29.575Z,3.58
2017-02-01T09:53:34.916Z,3.71
2017-02-01T09:54:41.079Z,3.64
2017-02-01T09:55:47.246Z,3.65
2017-02-01T09:56:51.540Z,3.68
2017-02-01T09:57:56.732Z,3.71
2017-02-01T09:59:01.976Z,3.8
2017-02-01T10:00:07.175Z,3.88
2017-02-01T10:01:13.349Z,3.78
2017-02-01T10:02:17.624Z,4.01
2017-02-01T10:03:22.862Z,4
2017-02-01T10:04:27.097Z,4.08
2017-02-01T10:05:32.300Z,4.1
2017-02-01T10:06:37.469Z,4.21
2017-02-01T10:07:42.770Z,4.14
2017-02-01T10:08:46.936Z,4.1
2017-02-01T10:09:51.183Z,4.1
2017-02-01T10:10:57.427Z,4.15
2017-02-01T10:12:02.597Z,4.16
2017-02-01T10:13:07.894Z,4.14
2017-02-01T10:14:14.066Z,4.15
2017-02-01T10:15:19.265Z,4.15
2017-02-01T10:16:25.444Z,4.15
2017-02-01T10:17:30.651Z,4.07
2017-02-01T10:18:35.851Z,4.21
2017-02-01T10:19:41.050Z,4.21
2017-02-01T10:20:46.249Z,4.15
2017-02-01T10:21:51.499Z,4.15
2017-02-01T10:22:57.666Z,4.18
2017-02-01T10:24:03.889Z,4.14
2017-02-01T10:25:08.126Z,4.26
2017-02-01T10:26:13.317Z,4.33
2017-02-01T10:27:19.517Z,4.42
2017-02-01T10:28:25.649Z,4.55
2017-02-01T10:29:31.817Z,4.51
2017-02-01T10:30:37.012Z,4.59
2017-02-01T10:31:42.222Z,4.59
2017-02-01T10:32:47.426Z,4.65
2017-02-01T10:33:53.588Z,4.72
2017-02-01T10:34:56.832Z,4.75
2017-02-01T10:36:01.998Z,4.79
2017-02-01T10:37:07.212Z,4.73
2017-02-01T10:38:13.439Z,4.7
2017-02-01T10:39:18.653Z,4.72
2017-02-01T10:40:23.865Z,4.77
2017-02-01T10:41:29.081Z,4.8
2017-02-01T10:42:35.246Z,4.8
2017-02-01T10:43:40.417Z,4.89
2017-02-01T10:44:46.593Z,4.79
2017-02-01T10:45:52.755Z,4.7
2017-02-01T10:46:57.949Z,4.76
2017-02-01T10:48:03.206Z,4.77
2017-02-01T10:49:09.376Z,4.7
2017-02-01T10:50:15.540Z,4.72
2017-02-01T10:51:21.732Z,4.96
2017-02-01T10:52:27.905Z,5.07
2017-02-01T10:53:33.097Z,5.05
2017-02-01T10:54:36.413Z,5.1
2017-02-01T10:55:42.509Z,5.19
2017-02-01T10:56:46.834Z,5.25
2017-02-01T10:57:52.098Z,5.23
2017-02-01T10:58:57.265Z,5.23
2017-02-01T11:00:03.429Z,5.27
2017-02-01T11:01:09.601Z,5.43
2017-02-01T11:02:14.805Z,5.32
2017-02-01T11:03:20.015Z,5.28
2017-02-01T11:04:25.228Z,5.17
2017-02-01T11:05:31.394Z,5.16
2017-02-01T11:06:37.648Z,5.27
2017-02-01T11:07:43.814Z,5.32
2017-02-01T11:08:48.996Z,5.48
2017-02-01T11:09:55.226Z,5.43
2017-02-01T11:11:00.439Z,5.46
2017-02-01T11:12:06.607Z,5.43
2017-02-01T11:13:12.774Z,5.46
2017-02-01T11:14:16.978Z,5.53
2017-02-01T11:15:23.146Z,5.48
2017-02-01T11:16:29.353Z,5.35
2017-02-01T11:17:35.523Z,5.41
2017-02-01T11:18:41.688Z,5.46
2017-02-01T11:19:47.862Z,5.48
2017-02-01T11:20:54.040Z,5.63
2017-02-01T11:21:59.251Z,5.63
2017-02-01T11:23:04.471Z,5.7
2017-02-01T11:24:09.690Z,5.81
2017-02-01T11:25:14.868Z,5.78
2017-02-01T11:26:20.075Z,5.96
2017-02-01T11:27:26.252Z,6.04
2017-02-01T11:28:30.458Z,6.18
2017-02-01T11:29:36.634Z,6.07
2017-02-01T11:30:41.809Z,5.89
2017-02-01T11:31:47.991Z,5.86
2017-02-01T11:32:54.190Z,5.81
2017-02-01T11:33:58.404Z,5.7
2017-02-01T11:35:04.713Z,5.86
2017-02-01T11:36:09.919Z,5.78
2017-02-01T11:37:14.133Z,5.86
2017-02-01T11:38:19.294Z,6
2017-02-01T11:39:23.534Z,5.96
2017-02-01T11:40:29.744Z,5.88
2017-02-01T11:41:35.887Z,5.78
2017-02-01T11:42:40.093Z,5.86
2017-02-01T11:43:43.323Z,5.89
2017-02-01T11:44:49.493Z,5.98
2017-02-01T11:45:55.670Z,6.22
2017-02-01T11:46:59.908Z,6.26
2017-02-01T11:48:05.118Z,6.41
2017-02-01T11:49:10.323Z,6.35
2017-02-01T11:50:15.533Z,6.36
2017-02-01T11:51:20.732Z,6.41
2017-02-01T11:52:25.902Z,6.43
2017-02-01T11:53:32.075Z,6.56
2017-02-01T11:54:37.277Z,6.53
2017-02-01T11:55:42.467Z,6.48
2017-02-01T11:56:48.638Z,6.56
2017-02-01T11:57:54.800Z,6.58
2017-02-01T11:59:00.967Z,6.46
2017-02-01T12:00:05.216Z,6.36
2017-02-01T12:01:09.414Z,6.43
2017-02-01T12:02:15.585Z,6.35
2017-02-01T12:03:21.749Z,6.35
2017-02-01T12:04:26.960Z,6.38
2017-02-01T12:05:33.133Z,6.38
2017-02-01T12:06:37.455Z,6.35
2017-02-01T12:07:42.657Z,6.5
2017-02-01T12:08:47.914Z,6.5
2017-02-01T12:09:53.263Z,6.53
2017-02-01T12:10:59.437Z,6.48
2017-02-01T12:12:03.633Z,6.47
2017-02-01T12:13:09.888Z,6.5
2017-02-01T12:14:14.093Z,6.38
2017-02-01T12:15:19.298Z,6.36
2017-02-01T12:16:25.526Z,6.29
2017-02-01T12:17:30.803Z,6.29
2017-02-01T12:18:36.988Z,6.26
2017-02-01T12:19:43.147Z,6.3
2017-02-01T12:20:48.350Z,6.29
2017-02-01T12:21:53.526Z,6.26
2017-02-01T12:22:57.751Z,6.14
2017-02-01T12:24:03.932Z,6.18
2017-02-01T12:25:10.104Z,6.16
2017-02-01T12:26:15.313Z,6.11
2017-02-01T12:27:21.491Z,5.98
2017-02-01T12:28:26.702Z,5.96
2017-02-01T12:29:32.864Z,6.04
2017-02-01T12:30:38.069Z,6
2017-02-01T12:31:43.269Z,6.07
2017-02-01T12:32:49.442Z,6.1
2017-02-01T12:33:52.682Z,6.06
2017-02-01T12:34:57.969Z,6.22
2017-02-01T12:36:04.167Z,6.18
2017-02-01T12:37:10.314Z,6.01
2017-02-01T12:38:14.567Z,6.01
2017-02-01T12:39:20.733Z,5.75
2017-02-01T12:40:25.927Z,5.85
2017-02-01T12:41:32.153Z,5.78
2017-02-01T12:42:37.343Z,5.7
2017-02-01T12:43:43.575Z,5.63
2017-02-01T12:44:48.777Z,5.57
2017-02-01T12:45:54.954Z,5.45
2017-02-01T12:47:01.124Z,5.49
2017-02-01T12:48:06.333Z,5.4
2017-02-01T12:49:11.533Z,5.4
2017-02-01T12:50:15.866Z,5.41
2017-02-01T12:51:22.025Z,5.49
2017-02-01T12:52:26.266Z,5.45
2017-02-01T12:53:32.449Z,5.41
2017-02-01T12:54:38.628Z,5.48
2017-02-01T12:55:44.839Z,5.41
2017-02-01T12:56:50.971Z,5.45
2017-02-01T12:57:56.176Z,5.5
2017-02-01T12:59:01.383Z,5.5
2017-02-01T13:00:07.550Z,5.55
2017-02-01T13:01:13.714Z,5.6
2017-02-01T13:02:19.907Z,5.57
2017-02-01T13:03:25.105Z,5.56
2017-02-01T13:04:30.334Z,5.55
2017-02-01T13:05:35.543Z,5.5
2017-02-01T13:06:41.711Z,5.46
2017-02-01T13:07:46.916Z,5.45
2017-02-01T13:08:51.230Z,5.53
2017-02-01T13:09:56.440Z,5.45
2017-02-01T13:11:01.643Z,5.43
2017-02-01T13:12:06.846Z,5.48
2017-02-01T13:13:12.037Z,5.52
2017-02-01T13:14:17.239Z,5.5
2017-02-01T13:15:21.525Z,5.53
2017-02-01T13:16:26.082Z,5.46
2017-02-01T13:17:31.279Z,5.52
2017-02-01T13:18:35.478Z,5.52
2017-02-01T13:19:40.692Z,5.5
2017-02-01T13:20:46.861Z,5.5
2017-02-01T13:21:52.269Z,5.53
2017-02-01T13:22:56.509Z,5.53
2017-02-01T13:24:02.670Z,5.56
2017-02-01T13:25:07.865Z,5.5
2017-02-01T13:26:14.100Z,5.48
2017-02-01T13:27:19.334Z,5.52
2017-02-01T13:28:24.575Z,5.6
2017-02-01T13:29:29.710Z,5.6
2017-02-01T13:30:35.886Z,5.59
2017-02-01T13:31:41.086Z,5.66
2017-02-01T13:32:47.264Z,5.74
2017-02-01T13:33:52.467Z,5.68
2017-02-01T13:34:57.671Z,5.73
2017-02-01T13:36:02.872Z,5.66
2017-02-01T13:37:09.042Z,5.64
2017-02-01T13:39:19.428Z,5.63
2017-02-01T13:40:23.637Z,5.59
2017-02-01T13:41:29.818Z,5.6
2017-02-01T13:42:35.013Z,5.67
2017-02-01T13:43:41.182Z,5.66
2017-02-01T13:44:46.365Z,5.68
2017-02-01T13:45:49.600Z,5.71
2017-02-01T13:46:55.779Z,5.73
2017-02-01T13:48:01.072Z,5.73
2017-02-01T13:49:07.235Z,5.81
2017-02-01T13:50:11.468Z,5.81
2017-02-01T13:51:16.664Z,5.73
2017-02-01T13:52:19.935Z,5.77
2017-02-01T13:53:26.101Z,5.77
2017-02-01T13:54:32.264Z,5.85
2017-02-01T13:55:37.456Z,5.78
2017-02-01T13:56:42.657Z,5.77
2017-02-01T13:57:47.865Z,5.75
2017-02-01T13:58:52.074Z,5.86
2017-02-01T13:59:56.289Z,5.77
2017-02-01T14:01:02.463Z,5.88
2017-02-01T14:02:07.667Z,5.77
2017-02-01T14:03:12.847Z,5.83
2017-02-01T14:04:19.021Z,5.82
2017-02-01T14:05:25.200Z,5.81
2017-02-01T14:06:31.367Z,5.66
2017-02-01T14:07:36.780Z,5.68
2017-02-01T14:08:42.958Z,5.71
2017-02-01T14:09:47.163Z,5.73
2017-02-01T14:10:51.374Z,5.82
2017-02-01T14:11:55.613Z,5.77
2017-02-01T14:13:00.819Z,5.81
2017-02-01T14:14:05.045Z,5.81
2017-02-01T14:15:10.245Z,5.78
2017-02-01T14:16:16.408Z,5.75
2017-02-01T14:17:20.637Z,5.85
2017-02-01T14:18:26.888Z,5.78
2017-02-01T14:19:32.017Z,5.78
2017-02-01T14:20:38.185Z,5.77
2017-02-01T14:21:44.350Z,5.78
2017-02-01T14:22:49.554Z,5.81
2017-02-01T14:23:55.721Z,5.81
2017-02-01T14:25:01.885Z,5.81
2017-02-01T14:26:05.167Z,5.86
2017-02-01T14:27:11.306Z,5.85
2017-02-01T14:28:16.494Z,5.74
2017-02-01T14:29:22.658Z,5.81
2017-02-01T14:30:27.848Z,5.74
2017-02-01T14:31:34.078Z,5.75
2017-02-01T14:32:39.311Z,5.74
2017-02-01T14:33:44.512Z,5.74
2017-02-01T14:35:54.880Z,5.73
2017-02-01T14:37:00.089Z,5.67
2017-02-01T14:38:06.254Z,5.67